Time;durP1;ratioP1;P1;durP2;ratioP2;P2;SDS_P1;SDS_P2;PMS_P1;PMS_P2;Temp;Humidity;BMP_temperature;BMP_pressure;BME280_temperature;BME280_humidity;BME280_pressure;Samples;Min_cycle;Max_cycle;Signal;HPM_P1;HPM_P2
2023/10/16 00:01:20;;;;;;;0.40;0.40;;;;;;;8.18;69.26;100012.66;5094884;28;20043;-69
2023/10/16 00:03:52;;;;;;;0.40;0.40;;;;;;;8.27;68.55;100015.34;5094744;28;20118;-69
2023/10/16 00:06:21;;;;;;;0.68;0.68;;;;;;;8.44;68.61;100014.75;5094645;28;20486;-69
2023/10/16 00:08:53;;;;;;;0.30;0.30;;;;;;;8.60;67.89;100018.34;5093957;28;20070;-70
2023/10/16 00:11:24;;;;;;;0.52;0.52;;;;;;;8.70;67.34;100017.63;5093931;28;20051;-70
2023/10/16 00:13:56;;;;;;;0.65;0.65;;;;;;;8.69;66.70;100021.00;5093825;28;20048;-70
2023/10/16 00:16:28;;;;;;;0.50;0.50;;;;;;;8.75;66.65;100018.53;5093882;28;20055;-69
2023/10/16 00:19:01;;;;;;;0.28;0.28;;;;;;;8.79;67.83;100012.63;5093580;28;20048;-69
2023/10/16 00:21:31;;;;;;;0.40;0.40;;;;;;;8.82;67.10;100012.69;5094084;28;20039;-69
2023/10/16 00:23:59;;;;;;;;;;;;;;;8.79;66.67;100002.47;5094339;28;20048;-69
2023/10/16 00:26:30;;;;;;;0.60;0.60;;;;;;;8.82;66.43;99997.41;5094259;28;19920;-70
2023/10/16 00:29:17;;;;;;;0.40;0.40;;;;;;;8.79;67.00;100002.47;5092840;28;20130;-69
2023/10/16 00:31:51;;;;;;;1.93;1.23;;;;;;;8.77;66.68;100004.13;5093813;28;20106;-70
2023/10/16 00:34:22;;;;;;;0.25;0.25;;;;;;;8.67;66.56;100007.41;5092116;28;20135;-70
2023/10/16 00:36:53;;;;;;;0.68;0.68;;;;;;;8.58;67.25;100004.75;5093637;28;20082;-70
2023/10/16 00:39:28;;;;;;;0.55;0.55;;;;;;;8.54;67.74;100000.47;5093961;28;20050;-69
2023/10/16 00:41:58;;;;;;;0.57;0.57;;;;;;;8.56;67.42;99993.72;5093892;28;20123;-70
2023/10/16 00:44:33;;;;;;;0.38;0.38;;;;;;;8.51;67.75;99995.34;5093879;28;20424;-70
2023/10/16 00:47:05;;;;;;;0.38;0.38;;;;;;;8.50;67.76;99998.69;5092705;28;20127;-69
2023/10/16 00:49:38;;;;;;;0.35;0.35;;;;;;;8.51;67.48;99993.66;5092393;28;20052;-70
2023/10/16 00:52:08;;;;;;;0.32;0.32;;;;;;;8.52;67.05;100007.19;5092894;28;20046;-70
2023/10/16 00:54:41;;;;;;;0.32;0.32;;;;;;;8.57;67.14;99990.31;5093609;28;20044;-70
2023/10/16 00:57:11;;;;;;;0.20;0.20;;;;;;;8.56;66.68;100001.34;5092281;28;20044;-70
2023/10/16 00:59:41;;;;;;;;;;;;;;;8.56;67.34;99998.78;5092861;28;20508;-69
2023/10/16 01:02:14;;;;;;;0.30;0.30;;;;;;;8.61;67.31;100009.88;5093386;28;19920;-69
2023/10/16 01:04:47;;;;;;;0.30;0.30;;;;;;;8.54;66.62;100008.09;5093272;28;20052;-69
2023/10/16 01:07:19;;;;;;;0.22;0.22;;;;;;;8.35;67.58;100013.78;5093245;28;20040;-69
2023/10/16 01:09:49;;;;;;;0.63;0.57;;;;;;;8.01;67.43;100008.16;5093333;28;20054;-71
2023/10/16 01:12:22;;;;;;;0.30;0.30;;;;;;;7.88;68.40;100007.97;5093373;28;20044;-70
2023/10/16 01:14:53;;;;;;;0.28;0.28;;;;;;;7.93;68.01;100009.75;5092439;28;20559;-71
2023/10/16 01:17:31;;;;;;;0.30;0.30;;;;;;;7.93;68.01;100002.13;5093316;28;20127;-70
2023/10/16 01:20:01;;;;;;;0.20;0.20;;;;;;;7.91;68.20;100006.34;5093308;28;20131;-69
2023/10/16 01:22:34;;;;;;;0.30;0.30;;;;;;;7.83;68.73;99992.66;5093370;28;20486;-70
2023/10/16 01:25:08;;;;;;;0.40;0.40;;;;;;;7.91;68.09;100006.34;5093104;28;20052;-70
2023/10/16 01:27:38;;;;;;;0.30;0.30;;;;;;;7.88;68.69;99996.13;5093114;28;20040;-71
2023/10/16 01:30:09;;;;;;;0.22;0.22;;;;;;;7.89;69.26;99991.91;5094107;28;20528;-70
2023/10/16 01:32:38;;;;;;;0.30;0.30;;;;;;;7.92;68.72;99995.34;5095991;28;20131;-71
2023/10/16 01:35:09;;;;;;;0.50;0.50;;;;;;;7.85;68.60;99996.06;5095512;28;20516;-69
2023/10/16 01:37:39;;;;;;;0.30;0.30;;;;;;;7.84;68.78;100001.16;5096743;28;20531;-71
2023/10/16 01:40:21;;;;;;;0.40;0.40;;;;;;;7.70;68.62;100006.00;5095503;28;20048;-71
2023/10/16 01:42:53;;;;;;;0.30;0.30;;;;;;;7.52;69.03;100010.78;5095524;28;20095;-69
2023/10/16 01:45:26;;;;;;;0.30;0.30;;;;;;;7.56;69.27;100016.78;5095608;28;20048;-69
2023/10/16 01:47:56;;;;;;;0.50;0.50;;;;;;;7.49;68.89;100009.88;5095713;28;20048;-71
2023/10/16 01:50:27;;;;;;;0.40;0.40;;;;;;;7.37;69.37;100023.22;5095629;28;20066;-69
2023/10/16 01:52:56;;;;;;;0.30;0.30;;;;;;;7.30;68.86;100013.78;5095674;28;20532;-71
2023/10/16 01:55:27;;;;;;;0.30;0.30;;;;;;;7.16;70.20;100010.16;5095218;28;20055;-71
2023/10/16 01:57:59;;;;;;;0.60;0.60;;;;;;;7.11;70.24;100007.53;5096298;28;20056;-70
2023/10/16 02:00:34;;;;;;;0.50;0.50;;;;;;;7.02;70.43;99998.91;5095145;28;20040;-70
2023/10/16 02:03:08;;;;;;;0.45;0.45;;;;;;;7.00;70.48;99998.00;5096309;28;20048;-69
2023/10/16 02:05:41;;;;;;;0.47;0.47;;;;;;;6.95;70.97;99994.53;5096194;28;20044;-70
2023/10/16 02:08:12;;;;;;;0.40;0.40;;;;;;;7.03;70.26;99993.84;5094941;28;20048;-69
2023/10/16 02:10:43;;;;;;;0.30;0.30;;;;;;;6.98;70.95;99990.34;5095045;28;20052;-69
2023/10/16 02:13:13;;;;;;;0.40;0.40;;;;;;;7.00;70.66;99993.81;5096523;28;20400;-69
2023/10/16 02:15:42;;;;;;;0.20;0.20;;;;;;;6.94;70.16;100002.97;5094946;28;20119;-71
2023/10/16 02:18:22;;;;;;;0.47;0.47;;;;;;;6.96;70.40;100006.41;5096232;28;20040;-70
2023/10/16 02:20:54;;;;;;;0.25;0.25;;;;;;;7.12;70.25;100008.38;5096099;28;20032;-69
2023/10/16 02:23:26;;;;;;;0.45;0.45;;;;;;;7.05;70.65;100006.56;5094878;28;20486;-69
2023/10/16 02:25:59;;;;;;;0.30;0.30;;;;;;;7.00;70.96;100013.25;5094962;28;20050;-70
2023/10/16 02:28:31;;;;;;;0.30;0.30;;;;;;;6.87;70.97;100016.34;5095784;28;20510;-70
2023/10/16 02:31:10;;;;;;;0.20;0.20;;;;;;;6.72;70.80;100015.22;5096098;28;20097;-69
2023/10/16 02:33:45;;;;;;;2.17;1.00;;;;;;;6.75;70.39;100022.06;5095722;28;20052;-69
2023/10/16 02:36:15;;;;;;;0.30;0.30;;;;;;;6.86;70.15;100019.72;5095551;28;20502;-70
2023/10/16 02:38:44;;;;;;;0.40;0.40;;;;;;;6.88;69.81;100030.75;5094701;28;20058;-69
2023/10/16 02:41:15;;;;;;;0.20;0.20;;;;;;;6.83;69.84;100034.88;5095584;28;20036;-70
2023/10/16 02:43:45;;;;;;;0.90;0.70;;;;;;;6.85;69.77;100035.78;5096121;28;20060;-70
2023/10/16 02:46:18;;;;;;;0.30;0.30;;;;;;;6.75;70.15;100037.28;5095371;28;20040;-70
2023/10/16 02:48:47;;;;;;;0.25;0.25;;;;;;;6.47;70.54;100030.78;5095558;28;20052;-70
2023/10/16 02:51:16;;;;;;;0.20;0.20;;;;;;;6.14;71.11;100021.59;5094659;28;20044;-69
2023/10/16 02:53:48;;;;;;;0.30;0.30;;;;;;;6.10;70.86;100028.25;5094094;28;20040;-69
2023/10/16 02:56:22;;;;;;;0.20;0.20;;;;;;;6.21;71.89;100021.78;5094472;28;20054;-69
2023/10/16 02:58:54;;;;;;;2.28;1.00;;;;;;;6.23;71.71;100024.31;5095222;28;20094;-70
2023/10/16 03:01:24;;;;;;;0.20;0.20;;;;;;;6.20;71.31;100030.19;5095105;28;20060;-70
2023/10/16 03:03:53;;;;;;;0.40;0.40;;;;;;;6.14;72.01;100025.00;5094123;28;20486;-69
2023/10/16 03:06:21;;;;;;;0.63;0.63;;;;;;;6.21;71.83;100031.91;5094953;28;20047;-70
2023/10/16 03:08:51;;;;;;;0.20;0.20;;;;;;;6.16;72.21;100047.81;5094339;28;20389;-70
2023/10/16 03:11:21;;;;;;;0.30;0.30;;;;;;;6.10;72.16;100053.59;5094876;28;20067;-68
2023/10/16 03:13:51;;;;;;;0.40;0.40;;;;;;;6.04;72.37;100050.94;5095550;28;20071;-69
2023/10/16 03:16:23;;;;;;;;;;;;;;;6.01;72.67;100040.72;5095572;28;20040;-69
2023/10/16 03:19:02;;;;;;;0.22;0.22;;;;;;;6.04;72.57;100043.34;5093879;28;20377;-69
2023/10/16 03:21:34;;;;;;;0.60;0.60;;;;;;;6.17;72.59;100045.31;5095115;28;20490;-69
2023/10/16 03:24:04;;;;;;;0.70;0.63;;;;;;;6.13;73.12;100046.06;5094938;28;20047;-69
2023/10/16 03:26:35;;;;;;;0.20;0.20;;;;;;;6.19;72.55;100056.31;5093735;28;20138;-69
2023/10/16 03:29:04;;;;;;;2.17;0.93;;;;;;;6.12;72.57;100059.53;5095023;28;20048;-71
2023/10/16 03:31:36;;;;;;;0.40;0.40;;;;;;;5.96;72.54;100070.16;5094546;28;20101;-71
2023/10/16 03:34:08;;;;;;;0.45;0.45;;;;;;;5.94;73.36;100051.53;5094464;28;20052;-69
2023/10/16 03:36:39;;;;;;;0.30;0.30;;;;;;;6.08;73.06;100060.31;5092954;28;20063;-70
2023/10/16 03:39:12;;;;;;;0.30;0.30;;;;;;;6.00;73.57;100062.66;5094771;28;20127;-69
2023/10/16 03:41:42;;;;;;;0.40;0.40;;;;;;;5.98;73.91;100073.56;5094886;28;20051;-71
2023/10/16 03:44:17;;;;;;;0.30;0.30;;;;;;;5.95;73.17;100068.47;5094319;28;20486;-70
2023/10/16 03:46:47;;;;;;;0.40;0.40;;;;;;;5.84;73.35;100073.25;5094259;28;20048;-69
2023/10/16 03:49:17;;;;;;;0.55;0.55;;;;;;;5.70;73.81;100073.69;5094304;28;20063;-69
2023/10/16 03:51:48;;;;;;;0.95;0.95;;;;;;;5.69;73.95;100069.44;5093230;28;20048;-69
2023/10/16 03:54:30;;;;;;;0.32;0.32;;;;;;;5.68;73.73;100073.66;5093748;28;20056;-69
2023/10/16 03:57:01;;;;;;;0.30;0.30;;;;;;;5.55;73.88;100071.63;5094157;28;20052;-69
2023/10/16 03:59:30;;;;;;;0.20;0.20;;;;;;;5.54;73.95;100066.56;5094414;28;20101;-70
2023/10/16 04:02:03;;;;;;;0.40;0.40;;;;;;;5.40;73.93;100067.03;5094186;28;20401;-69
2023/10/16 04:04:33;;;;;;;0.55;0.55;;;;;;;5.25;73.85;100071.72;5094108;28;20490;-70
2023/10/16 04:07:03;;;;;;;0.32;0.32;;;;;;;5.22;74.16;100071.63;5093906;28;20044;-70
2023/10/16 04:09:38;;;;;;;0.40;0.40;;;;;;;5.22;73.90;100069.09;5093964;28;20075;-69
2023/10/16 04:12:17;;;;;;;0.43;0.43;;;;;;;5.15;73.97;100082.41;5094324;28;20064;-70
2023/10/16 04:14:50;;;;;;;0.30;0.30;;;;;;;4.95;74.33;100075.94;5094225;28;20131;-69
2023/10/16 04:17:18;;;;;;;0.57;0.57;;;;;;;4.89;74.01;100090.94;5093943;28;20119;-70
2023/10/16 04:19:53;;;;;;;0.20;0.20;;;;;;;4.78;74.55;100097.34;5093787;28;20140;-69
2023/10/16 04:22:24;;;;;;;0.30;0.30;;;;;;;4.89;75.29;100088.41;5093792;28;20058;-69
2023/10/16 04:24:59;;;;;;;0.22;0.22;;;;;;;4.72;74.66;100094.66;5094256;28;20449;-70
2023/10/16 04:27:29;;;;;;;0.82;0.82;;;;;;;4.53;75.04;100094.94;5093665;28;20393;-70
2023/10/16 04:32:55;;;;;;;0.57;0.57;;;;;;;4.39;75.38;100096.19;5093986;28;19920;-69
2023/10/16 04:35:52;;;;;;;0.30;0.30;;;;;;;4.24;74.92;100094.03;5093652;28;20051;-70
2023/10/16 04:43:51;;;;;;;1.17;1.07;;;;;;;4.05;75.71;100095.13;5093897;28;20101;-69
2023/10/16 04:46:23;;;;;;;4.38;0.98;;;;;;;4.02;76.15;100105.13;5093670;28;20032;-69
2023/10/16 04:48:51;;;;;;;0.70;0.70;;;;;;;4.00;76.50;100106.75;5094199;28;20089;-69
2023/10/16 04:51:38;;;;;;;1.88;1.77;;;;;;;4.08;76.76;100115.41;5093378;28;20047;-69
2023/10/16 04:54:27;;;;;;;0.98;0.93;;;;;;;4.16;77.15;100124.91;5093418;28;20044;-69
2023/10/16 05:08:07;;;;;;;0.60;0.60;;;;;;;4.19;77.74;100117.44;5097651;28;20051;-69
2023/10/16 05:13:39;;;;;;;0.57;0.57;;;;;;;4.11;77.11;100123.91;5097123;28;20524;-68
2023/10/16 06:14:54;;;;;;;0.82;0.82;;;;;;;5.61;80.11;100172.22;5096886;28;20485;-68
2023/10/16 06:17:23;;;;;;;0.33;0.33;;;;;;;5.69;79.83;100176.66;5095310;28;20119;-69
2023/10/16 06:19:54;;;;;;;0.30;0.30;;;;;;;5.76;79.98;100177.69;5096235;28;20044;-68
2023/10/16 06:22:23;;;;;;;0.63;0.63;;;;;;;5.90;80.00;100184.84;5095102;28;20075;-69
2023/10/16 06:24:52;;;;;;;1.47;1.23;;;;;;;6.05;79.90;100197.03;5095811;28;20044;-69
2023/10/16 06:27:21;;;;;;;1.25;1.20;;;;;;;6.20;79.85;100210.09;5095628;28;20058;-70
2023/10/16 06:29:51;;;;;;;1.20;1.10;;;;;;;6.24;79.51;100209.34;5096327;28;20054;-69
2023/10/16 06:32:22;;;;;;;0.40;0.40;;;;;;;6.23;79.22;100217.78;5096393;28;20093;-69
2023/10/16 06:34:57;;;;;;;0.38;0.38;;;;;;;6.33;79.31;100214.69;5093783;28;20052;-69
2023/10/16 06:37:31;;;;;;;0.35;0.35;;;;;;;6.41;79.66;100213.16;5096727;28;20044;-68
2023/10/16 06:40:04;;;;;;;0.30;0.30;;;;;;;6.77;79.63;100217.41;5115922;28;20050;-68
2023/10/16 06:42:34;;;;;;;0.50;0.50;;;;;;;6.90;78.67;100209.25;5116211;28;20124;-70
2023/10/16 06:45:07;;;;;;;0.40;0.40;;;;;;;7.10;78.54;100219.00;5115652;28;20104;-68
2023/10/16 06:47:37;;;;;;;0.95;0.60;;;;;;;7.15;78.07;100216.56;5112506;28;20080;-68
2023/10/16 06:50:33;;;;;;;0.50;0.50;;;;;;;7.32;78.29;100215.22;5100929;28;20488;-69
2023/10/16 06:53:01;;;;;;;0.75;0.75;;;;;;;7.38;78.02;100207.75;5095504;28;20044;-68
2023/10/16 06:55:30;;;;;;;1.58;0.80;;;;;;;7.40;77.58;100203.56;5095175;28;20044;-69
2023/10/16 06:57:59;;;;;;;0.77;0.77;;;;;;;7.33;77.11;100206.78;5093984;28;20048;-69
2023/10/16 07:00:32;;;;;;;0.40;0.40;;;;;;;7.46;77.36;100208.78;5095093;28;20067;-68
2023/10/16 07:03:09;;;;;;;0.40;0.40;;;;;;;7.70;76.60;100204.13;5106010;28;20043;-69
2023/10/16 07:05:43;;;;;;;0.52;0.47;;;;;;;7.99;76.52;100203.00;5094567;28;20048;-69
2023/10/16 07:08:16;;;;;;;0.38;0.38;;;;;;;8.03;75.64;100202.25;5105860;28;20055;-70
2023/10/16 07:10:50;;;;;;;0.35;0.35;;;;;;;8.08;75.63;100208.28;5109205;28;20051;-70
2023/10/16 07:13:26;;;;;;;0.40;0.40;;;;;;;8.26;75.43;100201.75;5107568;28;20051;-69
2023/10/16 07:15:59;;;;;;;0.40;0.40;;;;;;;8.22;74.64;100210.19;5109775;28;20070;-68
2023/10/16 07:18:32;;;;;;;0.40;0.40;;;;;;;8.43;74.45;100215.66;5095042;28;20048;-68
2023/10/16 07:21:09;;;;;;;0.70;0.70;;;;;;;8.62;73.64;100217.66;5094764;28;20044;-69
2023/10/16 07:23:39;;;;;;;0.63;0.60;;;;;;;8.76;73.76;100221.25;5093743;28;20051;-68
2023/10/16 07:26:10;;;;;;;0.95;0.82;;;;;;;8.71;72.60;100227.97;5094548;28;20040;-68
2023/10/16 07:28:39;;;;;;;0.93;0.55;;;;;;;8.64;72.98;100226.16;5092893;28;20095;-68
2023/10/16 07:31:10;;;;;;;0.40;0.40;;;;;;;8.60;73.06;100225.28;5094928;28;20043;-69
2023/10/16 07:33:41;;;;;;;0.43;0.43;;;;;;;8.49;72.74;100225.94;5094839;28;20146;-69
2023/10/16 07:36:12;;;;;;;0.50;0.50;;;;;;;8.29;72.60;100232.38;5095447;28;20543;-68
2023/10/16 07:38:41;;;;;;;0.40;0.40;;;;;;;8.14;72.05;100222.75;5114825;28;20043;-68
2023/10/16 07:41:12;;;;;;;1.00;0.90;;;;;;;7.91;72.40;100224.03;5113781;28;20079;-69
2023/10/16 07:43:46;;;;;;;0.68;0.55;;;;;;;7.90;73.76;100228.25;5109159;28;20051;-68
2023/10/16 07:46:27;;;;;;;0.20;0.20;;;;;;;7.90;72.91;100223.16;5097585;28;20063;-69
2023/10/16 07:49:01;;;;;;;0.38;0.38;;;;;;;8.03;73.60;100230.22;5094128;28;20036;-68
2023/10/16 07:51:32;;;;;;;0.30;0.30;;;;;;;8.02;73.67;100235.25;5106078;28;20431;-71
2023/10/16 07:54:06;;;;;;;1.80;0.80;;;;;;;8.22;73.63;100236.47;5094108;28;20048;-68
2023/10/16 07:56:38;;;;;;;0.40;0.40;;;;;;;8.31;73.69;100225.63;5094365;28;20048;-69
2023/10/16 07:59:07;;;;;;;0.95;0.95;;;;;;;8.28;73.17;100225.59;5094340;28;20413;-68
2023/10/16 08:01:45;;;;;;;0.75;0.75;;;;;;;8.29;73.33;100232.38;5094174;28;20066;-67
2023/10/16 08:04:27;;;;;;;1.60;1.05;;;;;;;8.37;73.17;100230.81;5109790;28;20481;-68
2023/10/16 08:07:04;;;;;;;0.40;0.40;;;;;;;8.44;72.22;100227.53;5112947;28;20122;-68
2023/10/16 08:12:18;;;;;;;0.40;0.40;;;;;;;8.75;71.98;100238.25;5079218;28;20516;-69
2023/10/16 08:14:51;;;;;;;0.20;0.20;;;;;;;8.76;71.50;100236.53;5091554;28;20425;-68
2023/10/16 08:17:23;;;;;;;0.30;0.30;;;;;;;8.79;70.77;100236.59;5096506;28;20044;-68
2023/10/16 08:19:53;;;;;;;0.45;0.45;;;;;;;8.95;70.83;100228.34;5102072;28;20071;-70
2023/10/16 08:22:26;;;;;;;0.60;0.60;;;;;;;9.06;70.51;100231.91;5095174;28;20047;-69
2023/10/16 08:25:01;;;;;;;0.40;0.40;;;;;;;9.16;70.24;100233.75;5098602;28;20044;-68
2023/10/16 08:30:32;;;;;;;0.30;0.30;;;;;;;9.54;69.67;100220.66;5100958;28;20055;-68
2023/10/16 08:33:09;;;;;;;0.40;0.40;;;;;;;9.56;69.22;100224.91;5092696;28;20319;-69
2023/10/16 08:35:39;;;;;;;0.32;0.32;;;;;;;9.52;68.41;100237.59;5093533;28;20052;-69
2023/10/16 08:38:14;;;;;;;0.50;0.50;;;;;;;9.51;67.98;100231.66;5093947;28;20086;-69
2023/10/16 08:40:45;;;;;;;0.57;0.57;;;;;;;9.52;68.21;100232.50;5109974;28;20404;-68
2023/10/16 08:43:18;;;;;;;0.40;0.40;;;;;;;9.59;67.67;100230.06;5120773;27;20055;-68
2023/10/16 08:45:55;;;;;;;0.40;0.40;;;;;;;9.62;66.79;100229.25;5115419;27;20472;-68
2023/10/16 08:48:29;;;;;;;0.30;0.30;;;;;;;9.74;67.06;100237.03;5100230;28;20036;-69
2023/10/16 08:50:59;;;;;;;0.63;0.63;;;;;;;9.94;67.13;100231.31;5110153;28;20111;-69
2023/10/16 08:53:32;;;;;;;0.43;0.43;;;;;;;10.06;67.08;100228.88;5120930;27;20058;-68
2023/10/16 08:56:07;;;;;;;0.60;0.60;;;;;;;10.13;66.20;100224.72;5119490;28;20050;-69
2023/10/16 08:58:40;;;;;;;0.35;0.35;;;;;;;10.23;66.19;100230.75;5107008;27;20048;-68
2023/10/16 09:01:12;;;;;;;0.90;0.90;;;;;;;10.36;65.46;100233.47;5111953;28;20465;-69
2023/10/16 09:03:46;;;;;;;1.25;1.15;;;;;;;10.51;65.00;100223.38;5100215;28;20048;-69
2023/10/16 09:06:22;;;;;;;0.40;0.40;;;;;;;10.59;64.18;100226.84;5104141;28;20115;-70
2023/10/16 09:08:55;;;;;;;0.43;0.43;;;;;;;10.59;64.10;100226.84;5100018;28;20054;-69
2023/10/16 09:11:26;;;;;;;0.40;0.40;;;;;;;10.84;63.64;100221.91;5099932;28;20044;-68
2023/10/16 09:13:56;;;;;;;0.50;0.50;;;;;;;11.01;62.96;100217.78;5100010;28;20048;-69
2023/10/16 09:16:30;;;;;;;0.80;0.80;;;;;;;10.96;62.42;100219.44;5114598;28;20036;-68
2023/10/16 09:19:06;;;;;;;1.67;1.20;;;;;;;10.92;61.95;100220.28;5118547;28;20062;-69
2023/10/16 09:21:38;;;;;;;0.40;0.40;;;;;;;10.94;61.92;100216.03;5120695;27;20058;-69
2023/10/16 09:24:09;;;;;;;0.32;0.32;;;;;;;10.85;61.33;100221.06;5120642;27;20107;-69
2023/10/16 09:26:44;;;;;;;0.30;0.30;;;;;;;10.77;60.96;100221.84;5117950;28;20047;-71
2023/10/16 09:29:16;;;;;;;1.05;1.02;;;;;;;10.83;60.56;100222.75;5099732;28;20048;-69
2023/10/16 09:31:45;;;;;;;0.38;0.38;;;;;;;11.06;60.07;100208.44;5100206;28;20036;-68
2023/10/16 09:34:17;;;;;;;0.40;0.40;;;;;;;11.39;59.67;100213.72;5098376;28;20056;-68
2023/10/16 09:37:14;;;;;;;0.38;0.38;;;;;;;11.47;59.36;100214.59;5099205;28;20044;-69
2023/10/16 09:39:45;;;;;;;0.40;0.40;;;;;;;11.32;58.30;100212.00;5098398;28;20047;-69
2023/10/16 09:42:15;;;;;;;0.30;0.30;;;;;;;11.46;57.83;100220.56;5099693;28;20043;-69
2023/10/16 09:44:56;;;;;;;0.43;0.43;;;;;;;11.70;57.41;100219.84;5099095;28;20112;-70
2023/10/16 09:47:26;;;;;;;0.43;0.43;;;;;;;12.06;57.35;100205.44;5099704;28;20093;-69
2023/10/16 09:49:55;;;;;;;;;;;;;;;12.22;56.54;100211.44;5100364;28;20048;-67
2023/10/16 09:52:24;;;;;;;0.93;0.70;;;;;;;12.37;55.24;100200.34;5096027;28;19920;-68
2023/10/16 09:54:55;;;;;;;1.15;1.08;;;;;;;12.53;54.41;100196.94;5095360;28;20093;-67
2023/10/16 09:57:27;;;;;;;0.40;0.40;;;;;;;12.51;53.63;100190.97;5116870;28;20130;-68
2023/10/16 10:00:00;;;;;;;0.40;0.40;;;;;;;12.59;53.25;100186.69;5116826;28;20075;-68
2023/10/16 10:02:40;;;;;;;0.30;0.30;;;;;;;12.72;52.95;100183.25;5115600;28;20493;-68
2023/10/16 10:05:21;;;;;;;0.40;0.40;;;;;;;12.71;52.23;100181.56;5108288;28;20075;-68
2023/10/16 10:07:58;;;;;;;0.35;0.35;;;;;;;12.76;52.43;100179.84;5096473;28;20374;-68
2023/10/16 10:13:15;;;;;;;0.52;0.52;;;;;;;12.94;51.72;100189.19;5096380;28;20075;-67
2023/10/16 10:15:49;;;;;;;0.80;0.80;;;;;;;13.07;51.20;100186.66;5098092;28;20040;-68
2023/10/16 10:21:01;;;;;;;0.82;0.82;;;;;;;13.67;50.72;100187.25;5116472;28;20558;-68
2023/10/16 10:23:32;;;;;;;0.57;0.57;;;;;;;13.69;50.22;100183.81;5116684;28;20069;-68
2023/10/16 10:26:05;;;;;;;0.60;0.60;;;;;;;13.97;50.03;100180.22;5115242;28;20092;-68
2023/10/16 10:28:37;;;;;;;0.47;0.47;;;;;;;14.20;50.09;100172.38;5115236;28;20044;-68
2023/10/16 10:31:07;;;;;;;0.80;0.75;;;;;;;14.38;49.46;100145.72;5116406;28;20050;-64
2023/10/16 10:33:51;;;;;;;0.50;0.50;;;;;;;14.18;49.83;100171.50;5116484;28;20036;-68
2023/10/16 10:36:33;;;;;;;0.47;0.47;;;;;;;13.66;49.74;100162.44;5094298;28;20052;-69
2023/10/16 10:39:33;;;;;;;0.47;0.47;;;;;;;13.24;50.31;100164.38;5095304;28;20044;-69
2023/10/16 10:42:04;;;;;;;0.40;0.40;;;;;;;12.79;50.34;100160.19;5095946;28;20063;-69
2023/10/16 10:44:35;;;;;;;1.38;0.65;;;;;;;12.98;50.52;100155.03;5100454;28;20512;-70
2023/10/16 10:47:19;;;;;;;0.40;0.40;;;;;;;13.05;50.41;100151.59;5115964;28;20044;-69
2023/10/16 10:49:51;;;;;;;0.40;0.40;;;;;;;13.16;50.19;100144.75;5115676;28;20126;-69
2023/10/16 10:52:21;;;;;;;2.05;1.63;;;;;;;13.02;49.74;100147.34;5116025;28;20048;-68
2023/10/16 10:54:58;;;;;;;0.90;0.82;;;;;;;13.12;49.83;100140.50;5114467;28;20135;-69
2023/10/16 10:57:29;;;;;;;0.40;0.40;;;;;;;13.40;49.77;100140.38;5116017;28;20383;-69
2023/10/16 11:00:22;;;;;;;0.93;0.50;;;;;;;13.74;49.63;100135.06;5115620;28;20059;-69
2023/10/16 11:03:05;;;;;;;0.40;0.40;;;;;;;13.75;48.25;100126.50;5114507;28;20130;-69
2023/10/16 11:05:39;;;;;;;0.40;0.40;;;;;;;14.15;48.75;100127.91;5101136;28;20036;-70
2023/10/16 11:10:47;;;;;;;0.30;0.30;;;;;;;14.48;48.57;100117.38;5094940;28;20055;-70
2023/10/16 11:13:21;;;;;;;0.82;0.82;;;;;;;14.61;48.33;100108.66;5094957;28;20416;-69
2023/10/16 11:15:53;;;;;;;0.40;0.40;;;;;;;14.41;47.42;100105.47;5109952;28;20071;-69
2023/10/16 11:18:26;;;;;;;0.68;0.68;;;;;;;14.26;46.97;100110.69;5114029;28;20494;-69
2023/10/16 11:21:02;;;;;;;0.60;0.60;;;;;;;14.17;46.89;100105.66;5113559;28;20136;-69
2023/10/16 11:23:32;;;;;;;0.50;0.50;;;;;;;14.23;46.92;100094.50;5095574;28;20052;-70
2023/10/16 11:26:05;;;;;;;0.45;0.45;;;;;;;14.17;46.63;100100.50;5097518;28;20048;-69
2023/10/16 11:28:37;;;;;;;0.70;0.70;;;;;;;14.17;46.89;100090.25;5109490;28;20063;-69
2023/10/16 11:31:09;;;;;;;0.40;0.40;;;;;;;14.23;46.47;100090.19;5114999;28;20039;-70
2023/10/16 11:33:45;;;;;;;0.40;0.40;;;;;;;14.31;46.55;100083.31;5111482;28;20044;-70
2023/10/16 11:36:14;;;;;;;0.35;0.35;;;;;;;14.29;46.22;100086.72;5114612;28;20557;-69
2023/10/16 11:38:44;;;;;;;0.30;0.30;;;;;;;14.27;45.93;100080.75;5114834;28;20059;-69
2023/10/16 11:41:16;;;;;;;;;;;;;;;14.30;45.16;100071.31;5115214;28;20130;-69
2023/10/16 11:43:51;;;;;;;0.75;0.75;;;;;;;14.44;45.15;100069.50;5110831;28;20375;-69
2023/10/16 11:46:29;;;;;;;0.40;0.40;;;;;;;14.94;46.03;100061.22;5094349;28;20448;-69
2023/10/16 11:49:17;;;;;;;0.50;0.50;;;;;;;15.10;44.91;100061.84;5094276;28;20048;-69
2023/10/16 11:51:50;;;;;;;0.47;0.47;;;;;;;15.10;44.61;100062.72;5094275;28;20055;-69
2023/10/16 11:54:23;;;;;;;0.40;0.40;;;;;;;15.24;44.07;100055.66;5098870;28;20043;-69
2023/10/16 11:56:55;;;;;;;0.40;0.40;;;;;;;15.35;43.77;100064.09;5094360;28;20051;-69
2023/10/16 11:59:29;;;;;;;0.65;0.65;;;;;;;15.65;44.13;100054.25;5094543;28;20517;-70
2023/10/16 12:02:01;;;;;;;0.40;0.40;;;;;;;15.81;43.66;100048.81;5076295;28;20048;-69
2023/10/16 12:04:32;;;;;;;0.40;0.40;;;;;;;15.80;43.04;100052.28;5092767;28;20064;-69
2023/10/16 12:07:02;;;;;;;0.65;0.65;;;;;;;15.90;42.79;100046.13;5093608;28;20040;-69
2023/10/16 12:09:36;;;;;;;0.50;0.50;;;;;;;15.89;42.42;100048.72;5094212;28;20051;-69
2023/10/16 12:12:07;;;;;;;0.60;0.60;;;;;;;15.97;42.30;100042.56;5094270;28;20489;-70
2023/10/16 12:14:38;;;;;;;0.50;0.50;;;;;;;15.92;42.21;100043.50;5110634;28;20075;-69
2023/10/16 12:17:11;;;;;;;0.70;0.70;;;;;;;16.20;42.08;100043.88;5114211;28;20044;-70
2023/10/16 12:19:41;;;;;;;1.60;1.20;;;;;;;16.39;42.15;100037.50;5114389;28;20039;-70
2023/10/16 12:22:10;;;;;;;0.47;0.47;;;;;;;16.23;41.74;100039.53;5111938;28;20044;-70
2023/10/16 12:24:39;;;;;;;0.50;0.50;;;;;;;16.00;41.74;100039.09;5114034;28;20321;-71
2023/10/16 12:27:08;;;;;;;0.38;0.38;;;;;;;16.05;41.71;100027.81;5114069;28;20046;-70
2023/10/16 12:29:41;;;;;;;0.50;0.50;;;;;;;16.08;41.58;100027.78;5114151;28;20089;-68
2023/10/16 12:32:10;;;;;;;0.50;0.50;;;;;;;15.55;41.90;100034.69;5112566;28;20383;-68
2023/10/16 12:34:40;;;;;;;0.40;0.40;;;;;;;15.40;41.58;100022.88;5113630;28;20035;-69
2023/10/16 12:37:11;;;;;;;0.50;0.50;;;;;;;15.23;41.33;100032.53;5113983;28;20039;-68
2023/10/16 12:39:46;;;;;;;0.50;0.50;;;;;;;15.36;41.20;100028.91;5113937;28;20130;-69
2023/10/16 12:42:18;;;;;;;0.32;0.32;;;;;;;15.57;41.73;100033.78;5096487;28;20052;-69
2023/10/16 12:44:49;;;;;;;0.47;0.47;;;;;;;15.74;41.87;100026.63;5093875;28;20044;-69
2023/10/16 12:47:18;;;;;;;0.65;0.65;;;;;;;15.80;41.18;100029.13;5092267;28;20134;-69
2023/10/16 12:50:08;;;;;;;0.50;0.50;;;;;;;15.84;42.00;100020.47;5093658;28;20036;-70
2023/10/16 12:52:39;;;;;;;0.40;0.40;;;;;;;16.08;41.85;100017.47;5111885;28;20048;-68
2023/10/16 12:55:09;;;;;;;1.80;1.55;;;;;;;15.84;41.51;100023.03;5103825;28;20138;-69
2023/10/16 12:57:39;;;;;;;1.77;0.88;;;;;;;15.72;40.99;100023.25;5106576;28;20040;-69
2023/10/16 13:00:16;;;;;;;1.75;1.27;;;;;;;15.88;41.30;100023.84;5104367;28;20047;-70
2023/10/16 13:02:46;;;;;;;0.40;0.40;;;;;;;16.16;41.23;100019.06;5092487;28;20045;-70
2023/10/16 13:05:15;;;;;;;0.40;0.40;;;;;;;16.22;40.58;100024.13;5093242;28;20058;-70
2023/10/16 13:07:45;;;;;;;0.30;0.30;;;;;;;16.27;40.19;100017.16;5093228;28;20119;-70
2023/10/16 13:10:25;;;;;;;1.98;1.48;;;;;;;16.08;39.98;100020.06;5095085;28;20040;-71
2023/10/16 13:12:55;;;;;;;0.50;0.50;;;;;;;15.94;40.37;100027.16;5091902;28;20486;-70
2023/10/16 13:15:26;;;;;;;;;;;;;;;15.84;39.95;100023.03;5093626;28;20056;-70
2023/10/16 13:17:58;;;;;;;0.40;0.40;;;;;;;15.83;40.43;100021.34;5101384;28;20343;-70
2023/10/16 13:20:28;;;;;;;0.40;0.40;;;;;;;15.66;40.87;100023.34;5095463;28;20044;-71
2023/10/16 13:22:58;;;;;;;0.57;0.57;;;;;;;15.18;40.62;100024.91;5107052;28;20126;-70
2023/10/16 13:25:31;;;;;;;0.47;0.47;;;;;;;14.87;41.12;100021.03;5114078;28;20100;-70
2023/10/16 13:28:00;;;;;;;0.40;0.40;;;;;;;14.96;40.78;100022.63;5117819;28;20048;-70
2023/10/16 13:30:32;;;;;;;0.38;0.38;;;;;;;15.06;40.93;100019.06;5117534;28;20042;-69
2023/10/16 13:33:06;;;;;;;0.55;0.52;;;;;;;15.29;40.86;100017.00;5117258;28;20044;-70